createdAt,value
2018-02-09T00:02:16.254Z,87.80
2018-02-09T00:04:50.171Z,88.40
2018-02-09T00:07:23.983Z,88.40
2018-02-09T00:10:04.484Z,88.50
2018-02-09T00:12:42.510Z,88.50
2018-02-09T00:15:20.488Z,88.70
2018-02-09T00:18:03.188Z,88.70
2018-02-09T00:20:36.269Z,88.90
2018-02-09T00:23:11.959Z,89.10
2018-02-09T00:25:50.660Z,89.40
2018-02-09T00:28:30.310Z,89.50
2018-02-09T00:31:10.794Z,89.70
2018-02-09T00:33:49.913Z,89.60
2018-02-09T00:36:28.775Z,89.80
2018-02-09T00:39:03.724Z,89.80
2018-02-09T00:41:46.238Z,89.70
2018-02-09T00:44:28.007Z,89.50
2018-02-09T00:47:07.498Z,89.00
2018-02-09T00:49:50.059Z,88.90
2018-02-09T00:52:28.390Z,89.30
2018-02-09T00:55:09.636Z,89.20
2018-02-09T00:57:49.776Z,89.10
2018-02-09T01:00:28.893Z,89.10
2018-02-09T01:03:08.214Z,88.80
2018-02-09T01:05:47.689Z,88.90
2018-02-09T01:08:27.446Z,88.70
2018-02-09T01:11:06.691Z,88.60
2018-02-09T01:13:44.916Z,89.20
2018-02-09T01:16:26.404Z,89.20
2018-02-09T01:19:05.027Z,89.70
2018-02-09T01:21:43.920Z,90.00
2018-02-09T01:24:17.813Z,89.80
2018-02-09T01:26:58.884Z,89.70
2018-02-09T01:29:37.231Z,89.70
2018-02-09T01:32:18.052Z,89.20
2018-02-09T01:34:57.551Z,89.20
2018-02-09T01:37:37.286Z,89.70
2018-02-09T01:40:14.687Z,90.00
2018-02-09T01:42:53.055Z,89.80
2018-02-09T01:45:32.902Z,90.20
2018-02-09T01:48:13.099Z,90.00
2018-02-09T01:50:50.862Z,89.80
2018-02-09T01:53:30.938Z,89.60
2018-02-09T01:56:12.311Z,89.20
2018-02-09T01:58:51.684Z,89.30
2018-02-09T02:01:30.301Z,89.20
2018-02-09T02:04:11.840Z,89.00
2018-02-09T02:06:50.297Z,89.20
2018-02-09T02:09:31.694Z,89.50
2018-02-09T02:12:11.037Z,89.30
2018-02-09T02:14:54.304Z,89.20
2018-02-09T02:17:28.009Z,90.40
2018-02-09T02:20:02.405Z,90.30
2018-02-09T02:22:41.186Z,90.30
2018-02-09T02:25:20.024Z,90.10
2018-02-09T02:28:00.898Z,89.80
2018-02-09T02:30:46.646Z,89.70
2018-02-09T02:33:28.467Z,89.50
2018-02-09T02:36:05.781Z,89.40
2018-02-09T02:38:46.625Z,89.40
2018-02-09T02:41:25.592Z,90.00
2018-02-09T02:44:04.721Z,90.30
2018-02-09T02:46:44.492Z,90.40
2018-02-09T02:49:24.984Z,90.20
2018-02-09T02:52:03.872Z,90.10
2018-02-09T02:54:42.562Z,90.00
2018-02-09T02:57:18.228Z,90.40
2018-02-09T02:59:50.748Z,90.90
2018-02-09T03:02:29.322Z,91.00
2018-02-09T03:05:13.929Z,90.70
2018-02-09T03:07:47.427Z,90.60
2018-02-09T03:10:25.722Z,90.50
2018-02-09T03:13:05.914Z,90.50
2018-02-09T03:15:45.378Z,90.50
2018-02-09T03:18:25.960Z,90.80
2018-02-09T03:21:03.743Z,90.80
2018-02-09T03:23:41.425Z,90.90
2018-02-09T03:26:20.536Z,91.30
2018-02-09T03:29:01.404Z,91.50
2018-02-09T03:31:42.389Z,91.50
2018-02-09T03:34:23.234Z,91.60
2018-02-09T03:36:56.968Z,91.30
2018-02-09T03:39:37.839Z,91.40
2018-02-09T03:42:17.014Z,91.50
2018-02-09T03:44:56.123Z,92.00
2018-02-09T03:47:33.532Z,92.00
2018-02-09T03:50:16.463Z,91.80
2018-02-09T03:52:54.379Z,91.90
2018-02-09T03:55:33.160Z,91.90
2018-02-09T03:58:12.265Z,92.20
2018-02-09T04:00:50.156Z,92.20
2018-02-09T04:03:29.618Z,92.20
2018-02-09T04:06:08.140Z,92.20
2018-02-09T04:08:48.397Z,92.10
2018-02-09T04:11:30.872Z,92.30
2018-02-09T04:14:10.700Z,92.20
2018-02-09T04:16:51.920Z,92.00
2018-02-09T04:19:33.638Z,91.90
2018-02-09T04:22:17.337Z,91.80
2018-02-09T04:25:00.121Z,91.80
2018-02-09T04:27:39.226Z,91.60
2018-02-09T04:30:20.186Z,92.00
2018-02-09T04:32:57.694Z,92.00
2018-02-09T04:35:37.877Z,92.00
2018-02-09T04:38:21.458Z,91.90
2018-02-09T04:41:03.604Z,91.90
2018-02-09T04:43:45.326Z,91.80
2018-02-09T04:46:26.749Z,91.80
2018-02-09T04:49:10.473Z,91.70
2018-02-09T04:51:56.548Z,91.60
2018-02-09T04:54:35.322Z,91.30
2018-02-09T04:57:13.871Z,91.30
2018-02-09T04:59:53.067Z,91.30
2018-02-09T05:02:30.937Z,92.00
2018-02-09T05:05:09.836Z,92.00
2018-02-09T05:07:49.366Z,91.80
2018-02-09T05:10:22.616Z,92.20
2018-02-09T05:13:01.079Z,92.40
2018-02-09T05:15:40.193Z,92.30
2018-02-09T05:18:18.995Z,92.30
2018-02-09T05:20:57.324Z,92.20
2018-02-09T05:23:35.494Z,92.40
2018-02-09T05:26:15.878Z,92.40
2018-02-09T05:28:55.520Z,92.80
2018-02-09T05:31:34.000Z,93.10
2018-02-09T05:34:11.552Z,93.10
2018-02-09T05:36:49.848Z,93.20
2018-02-09T05:39:30.778Z,93.40
2018-02-09T05:42:10.064Z,93.40
2018-02-09T05:44:48.632Z,93.60
2018-02-09T05:47:27.048Z,93.90
2018-02-09T05:50:04.964Z,93.80
2018-02-09T05:52:46.539Z,93.80
2018-02-09T05:55:26.130Z,94.10
2018-02-09T05:58:00.761Z,93.80
2018-02-09T06:00:35.222Z,93.90
2018-02-09T06:03:11.657Z,93.80
2018-02-09T06:05:46.269Z,93.80
2018-02-09T06:08:20.472Z,93.80
2018-02-09T06:10:55.344Z,93.90
2018-02-09T06:13:33.925Z,93.90
2018-02-09T06:16:12.355Z,93.90
2018-02-09T06:18:52.999Z,94.00
2018-02-09T06:21:33.135Z,93.80
2018-02-09T06:24:12.446Z,93.70
2018-02-09T06:26:54.956Z,93.80
2018-02-09T06:29:33.477Z,93.80
2018-02-09T06:32:13.360Z,93.80
2018-02-09T06:34:56.786Z,94.00
2018-02-09T06:37:38.249Z,94.00
2018-02-09T06:40:18.551Z,94.00
2018-02-09T06:42:57.929Z,94.00
2018-02-09T06:45:38.033Z,94.00
2018-02-09T06:48:17.216Z,94.00
2018-02-09T06:50:56.340Z,94.00
2018-02-09T06:53:35.827Z,93.90
2018-02-09T06:56:18.922Z,94.10
2018-02-09T06:58:56.973Z,94.20
2018-02-09T07:01:36.876Z,94.10
2018-02-09T07:04:20.310Z,94.20
2018-02-09T07:06:59.768Z,94.20
2018-02-09T07:09:39.829Z,93.90
2018-02-09T07:12:21.991Z,94.00
2018-02-09T07:15:05.487Z,93.90
2018-02-09T07:17:39.129Z,93.90
2018-02-09T07:20:19.227Z,94.00
2018-02-09T07:22:59.041Z,94.00
2018-02-09T07:25:39.480Z,94.10
2018-02-09T07:28:14.245Z,94.10
2018-02-09T07:30:53.957Z,94.00
2018-02-09T07:33:32.300Z,94.00
2018-02-09T07:36:10.989Z,94.10
2018-02-09T07:38:47.373Z,93.90
2018-02-09T07:41:23.865Z,93.80
2018-02-09T07:43:58.308Z,93.80
2018-02-09T07:46:33.993Z,93.80
2018-02-09T07:49:14.661Z,93.70
2018-02-09T07:51:54.945Z,93.70
2018-02-09T07:54:36.106Z,93.80
2018-02-09T07:57:15.862Z,93.50
2018-02-09T07:59:52.393Z,93.30
2018-02-09T08:02:31.949Z,93.30
2018-02-09T08:05:12.042Z,93.00
2018-02-09T08:07:52.101Z,93.00
2018-02-09T08:10:31.125Z,92.90
2018-02-09T08:13:12.557Z,92.40
2018-02-09T08:15:47.039Z,92.00
2018-02-09T08:18:27.290Z,92.00
2018-02-09T08:21:09.400Z,91.70
2018-02-09T08:23:48.785Z,91.30
2018-02-09T08:26:30.019Z,91.10
2018-02-09T08:29:05.838Z,90.80
2018-02-09T08:34:19.199Z,90.60
2018-02-09T08:36:55.193Z,90.40
2018-02-09T08:39:34.109Z,89.30
2018-02-09T08:42:11.742Z,88.30
2018-02-09T08:44:50.911Z,86.10
2018-02-09T08:47:28.810Z,86.10
2018-02-09T08:50:05.734Z,85.70
2018-02-09T08:52:44.420Z,85.10
2018-02-09T08:55:22.743Z,84.10
2018-02-09T08:58:04.363Z,84.00
2018-02-09T09:00:43.868Z,83.10
2018-02-09T09:03:22.988Z,83.00
2018-02-09T09:06:02.368Z,81.80
2018-02-09T09:08:42.726Z,81.90
2018-02-09T09:11:23.516Z,81.20
2018-02-09T09:14:04.300Z,80.10
2018-02-09T09:16:45.929Z,79.00
2018-02-09T09:19:27.706Z,78.60
2018-02-09T09:22:08.811Z,77.80
2018-02-09T09:24:41.978Z,76.20
2018-02-09T09:27:21.529Z,75.10
2018-02-09T09:30:00.369Z,72.80
2018-02-09T09:32:41.490Z,73.40
2018-02-09T09:35:17.120Z,73.20
2018-02-09T09:37:58.199Z,71.00
2018-02-09T09:40:37.801Z,71.10
2018-02-09T09:43:19.159Z,71.10
2018-02-09T09:45:57.207Z,71.30
2018-02-09T09:48:42.156Z,70.00
2018-02-09T09:51:17.353Z,70.00
2018-02-09T09:53:58.404Z,69.30
2018-02-09T09:56:41.813Z,70.00
2018-02-09T09:59:21.504Z,69.90
2018-02-09T10:02:01.479Z,69.30
2018-02-09T10:04:35.996Z,66.40
2018-02-09T10:07:18.925Z,63.00
2018-02-09T10:09:53.165Z,61.30
2018-02-09T10:12:28.821Z,60.90
2018-02-09T10:15:03.467Z,59.10
2018-02-09T10:17:41.727Z,59.00
2018-02-09T10:20:26.897Z,57.00
2018-02-09T10:23:05.347Z,55.90
2018-02-09T10:25:49.543Z,60.30
2018-02-09T10:28:28.586Z,60.30
2018-02-09T10:31:10.769Z,59.40
2018-02-09T10:33:47.447Z,59.50
2018-02-09T10:36:32.651Z,59.30
2018-02-09T10:39:15.664Z,58.10
2018-02-09T10:41:57.977Z,57.20
2018-02-09T10:44:41.813Z,55.90
2018-02-09T10:47:24.048Z,53.50
2018-02-09T10:50:04.739Z,56.30
2018-02-09T10:52:49.667Z,56.30
2018-02-09T10:55:30.056Z,55.40
2018-02-09T10:58:15.130Z,54.80
2018-02-09T11:00:53.895Z,54.80
2018-02-09T11:03:32.647Z,55.00
2018-02-09T11:06:15.665Z,55.80
2018-02-09T11:08:56.132Z,55.30
2018-02-09T11:11:39.929Z,54.10
2018-02-09T11:14:24.656Z,54.10
2018-02-09T11:17:08.015Z,53.40
2018-02-09T11:19:51.577Z,53.90
2018-02-09T11:22:34.266Z,54.00
2018-02-09T11:25:14.304Z,53.20
2018-02-09T11:27:50.448Z,55.30
2018-02-09T11:30:30.555Z,55.80
2018-02-09T11:33:12.288Z,55.50
2018-02-09T11:35:51.350Z,55.60
2018-02-09T11:38:26.387Z,55.50
2018-02-09T11:41:08.862Z,55.30
2018-02-09T11:43:49.208Z,55.60
2018-02-09T11:46:32.176Z,54.00
2018-02-09T11:49:13.583Z,54.00
2018-02-09T11:51:54.046Z,52.70
2018-02-09T11:57:14.493Z,52.60
2018-02-09T11:59:53.218Z,54.90
2018-02-09T12:02:35.271Z,54.70
2018-02-09T12:05:16.210Z,54.60
2018-02-09T12:07:53.697Z,53.80
2018-02-09T12:10:32.234Z,54.00
2018-02-09T12:13:13.510Z,55.00
2018-02-09T12:15:54.388Z,60.50
2018-02-09T12:18:31.981Z,58.80
2018-02-09T12:21:16.571Z,56.50
2018-02-09T12:23:57.675Z,56.90
2018-02-09T12:26:39.056Z,56.50
2018-02-09T12:29:24.860Z,60.40
2018-02-09T12:32:01.813Z,60.50
2018-02-09T12:34:40.309Z,60.20
2018-02-09T12:37:23.430Z,60.20
2018-02-09T12:40:03.959Z,59.40
2018-02-09T12:42:41.155Z,59.60
2018-02-09T12:45:24.819Z,58.10
2018-02-09T12:48:08.615Z,57.30
2018-02-09T12:50:43.139Z,58.40
2018-02-09T12:53:22.053Z,59.10
2018-02-09T12:56:00.364Z,58.50
2018-02-09T12:58:43.481Z,59.10
2018-02-09T13:01:23.304Z,59.90
2018-02-09T13:04:06.271Z,59.80
2018-02-09T13:06:41.344Z,59.80
2018-02-09T13:09:22.604Z,60.50
2018-02-09T13:11:59.187Z,59.70
2018-02-09T13:14:45.935Z,58.30
2018-02-09T13:17:29.547Z,58.00
2018-02-09T13:20:11.417Z,58.70
2018-02-09T13:22:58.524Z,59.60
2018-02-09T13:25:40.536Z,60.70
2018-02-09T13:28:24.220Z,60.80
2018-02-09T13:31:03.615Z,61.70
2018-02-09T13:33:46.298Z,61.70
2018-02-09T13:36:25.660Z,61.20
2018-02-09T13:39:03.573Z,62.50
2018-02-09T13:41:42.025Z,62.20
2018-02-09T13:44:21.665Z,61.40
2018-02-09T13:46:55.882Z,64.30
2018-02-09T13:50:49.192Z,64.70
2018-02-09T13:53:30.378Z,63.60
2018-02-09T13:56:08.844Z,63.50
2018-02-09T13:58:57.916Z,64.00
2018-02-09T14:01:32.326Z,63.90
2018-02-09T14:04:14.196Z,64.00
2018-02-09T14:06:56.339Z,63.50
2018-02-09T14:09:39.065Z,62.50
2018-02-09T14:12:15.193Z,61.00
2018-02-09T14:14:54.788Z,62.00
2018-02-09T14:17:39.524Z,62.60
2018-02-09T14:20:14.083Z,62.90
2018-02-09T14:22:57.874Z,62.30
2018-02-09T14:25:36.608Z,62.30
2018-02-09T14:28:11.708Z,61.60
2018-02-09T14:30:53.122Z,63.10
2018-02-09T14:33:38.116Z,63.10
2018-02-09T14:36:12.236Z,62.30
2018-02-09T14:38:50.901Z,62.00
2018-02-09T14:41:32.832Z,61.30
2018-02-09T14:44:10.482Z,61.20
2018-02-09T14:46:52.008Z,61.40
2018-02-09T14:49:34.718Z,61.40
2018-02-09T14:52:15.816Z,62.00
2018-02-09T14:55:00.416Z,61.80
2018-02-09T14:57:36.564Z,64.50
2018-02-09T15:00:16.132Z,64.30
2018-02-09T15:02:56.437Z,67.20
2018-02-09T15:05:31.862Z,68.40
2018-02-09T15:08:10.548Z,69.30
2018-02-09T15:10:53.713Z,69.60
2018-02-09T15:13:33.386Z,70.20
2018-02-09T15:16:09.517Z,70.50
2018-02-09T15:18:48.659Z,70.40
2018-02-09T15:21:33.142Z,70.70
2018-02-09T15:24:13.006Z,71.00
2018-02-09T15:26:57.304Z,71.80
2018-02-09T15:29:38.341Z,71.80
2018-02-09T15:32:21.767Z,73.30
2018-02-09T15:34:59.619Z,73.60
2018-02-09T15:37:41.039Z,73.60
2018-02-09T15:40:24.857Z,74.30
2018-02-09T15:43:06.302Z,74.30
2018-02-09T15:45:46.792Z,75.30
2018-02-09T15:48:32.674Z,75.50
2018-02-09T15:51:07.566Z,76.00
2018-02-09T15:53:50.452Z,76.00
2018-02-09T15:56:31.062Z,75.90
2018-02-09T15:59:15.298Z,77.10
2018-02-09T16:01:53.578Z,77.00
2018-02-09T16:04:39.515Z,76.90
2018-02-09T16:07:21.066Z,77.30
2018-02-09T16:10:02.690Z,77.80
2018-02-09T16:12:45.318Z,77.30
2018-02-09T16:15:23.293Z,77.20
2018-02-09T16:18:01.819Z,77.70
2018-02-09T16:20:45.457Z,77.70
2018-02-09T16:23:19.167Z,77.70
2018-02-09T16:25:53.307Z,78.10
2018-02-09T16:28:36.468Z,78.60
2018-02-09T16:31:10.364Z,78.50
2018-02-09T16:33:49.635Z,78.40
2018-02-09T16:36:27.975Z,78.80
2018-02-09T16:39:10.139Z,79.20
2018-02-09T16:41:51.842Z,79.80
2018-02-09T16:44:26.268Z,79.60
2018-02-09T16:47:06.713Z,79.70
2018-02-09T16:49:46.817Z,79.90
2018-02-09T16:52:24.909Z,80.20
2018-02-09T16:55:02.870Z,80.30
2018-02-09T16:57:47.173Z,80.80
2018-02-09T17:00:25.424Z,80.80
2018-02-09T17:03:00.754Z,81.20
2018-02-09T17:05:40.439Z,81.10
2018-02-09T17:08:22.192Z,81.10
2018-02-09T17:11:00.956Z,81.30
2018-02-09T17:13:39.699Z,81.30
2018-02-09T17:16:19.492Z,81.10
2018-02-09T17:19:00.396Z,81.50
2018-02-09T17:21:39.139Z,81.70
2018-02-09T17:24:20.357Z,81.50
2018-02-09T17:27:05.573Z,81.60
2018-02-09T17:29:44.509Z,81.60
2018-02-09T17:32:23.932Z,81.70
2018-02-09T17:35:00.548Z,81.70
2018-02-09T17:37:41.105Z,81.60
2018-02-09T17:40:23.745Z,81.50
2018-02-09T17:43:04.855Z,81.60
2018-02-09T17:45:46.082Z,81.50
2018-02-09T17:48:25.565Z,81.70
2018-02-09T17:51:04.537Z,81.40
2018-02-09T17:53:44.648Z,81.40
2018-02-09T17:56:28.295Z,81.60
2018-02-09T17:59:10.054Z,81.70
2018-02-09T18:01:49.238Z,82.40
2018-02-09T18:04:32.463Z,82.30
2018-02-09T18:07:11.908Z,82.50
2018-02-09T18:09:56.744Z,82.90
2018-02-09T18:12:38.737Z,82.70
2018-02-09T18:15:22.889Z,82.60
2018-02-09T18:18:08.125Z,82.20
2018-02-09T18:20:51.366Z,82.60
2018-02-09T18:23:36.179Z,83.50
2018-02-09T18:26:19.912Z,83.50
2018-02-09T18:29:00.190Z,83.70
2018-02-09T18:31:41.240Z,83.50
2018-02-09T18:34:19.246Z,83.40
2018-02-09T18:36:55.889Z,83.10
2018-02-09T18:39:41.839Z,83.40
2018-02-09T18:42:20.952Z,83.60
2018-02-09T18:44:58.518Z,83.60
2018-02-09T18:47:38.062Z,83.70
2018-02-09T18:50:18.490Z,84.50
2018-02-09T18:52:57.955Z,84.50
2018-02-09T18:55:33.465Z,84.30
2018-02-09T18:58:08.818Z,84.10
2018-02-09T19:00:48.792Z,84.30
2018-02-09T19:03:28.222Z,84.30
2018-02-09T19:06:04.140Z,84.30
2018-02-09T19:08:44.391Z,84.10
2018-02-09T19:11:27.010Z,84.60
2018-02-09T19:14:09.999Z,84.60
2018-02-09T19:16:49.136Z,84.60
2018-02-09T19:19:28.801Z,84.80
2018-02-09T19:22:03.427Z,84.90
2018-02-09T19:24:41.559Z,85.70
2018-02-09T19:27:20.213Z,85.10
2018-02-09T19:29:59.044Z,85.00
2018-02-09T19:32:34.527Z,85.10
2018-02-09T19:35:14.293Z,85.60
2018-02-09T19:37:52.192Z,85.60
2018-02-09T19:40:27.615Z,85.40
2018-02-09T19:43:05.876Z,85.60
2018-02-09T19:45:44.346Z,85.60
2018-02-09T19:48:19.364Z,85.60
2018-02-09T19:50:55.108Z,85.60
2018-02-09T19:53:30.348Z,85.90
2018-02-09T19:56:07.332Z,86.30
2018-02-09T19:58:49.066Z,86.40
2018-02-09T20:01:29.892Z,86.60
2018-02-09T20:04:08.614Z,86.70
2018-02-09T20:06:47.156Z,86.40
2018-02-09T20:09:24.901Z,86.50
2018-02-09T20:12:02.730Z,86.60
2018-02-09T20:14:42.368Z,86.70
2018-02-09T20:17:21.572Z,86.50
2018-02-09T20:20:02.164Z,86.60
2018-02-09T20:22:42.958Z,86.80
2018-02-09T20:25:21.990Z,87.50
2018-02-09T20:27:59.508Z,87.40
2018-02-09T20:30:37.235Z,87.70
2018-02-09T20:33:15.565Z,87.90
2018-02-09T20:35:54.028Z,88.30
2018-02-09T20:38:32.235Z,88.00
2018-02-09T20:41:11.991Z,88.50
2018-02-09T20:43:50.339Z,88.40
2018-02-09T20:46:25.613Z,87.90
2018-02-09T20:49:04.597Z,88.40
2018-02-09T20:51:43.936Z,88.40
2018-02-09T20:54:21.486Z,88.20
2018-02-09T20:57:00.436Z,87.90
2018-02-09T20:59:35.191Z,87.60
2018-02-09T21:02:17.507Z,87.90
2018-02-09T21:04:57.375Z,88.20
2018-02-09T21:07:37.178Z,88.40
2018-02-09T21:10:14.706Z,88.40
2018-02-09T21:12:56.636Z,88.60
2018-02-09T21:15:30.607Z,88.60
2018-02-09T21:18:11.057Z,88.40
2018-02-09T21:20:48.460Z,88.20
2018-02-09T21:23:26.634Z,88.20
2018-02-09T21:26:05.634Z,88.20
2018-02-09T21:28:45.107Z,89.20
2018-02-09T21:31:19.980Z,88.50
2018-02-09T21:34:00.679Z,88.90
2018-02-09T21:36:39.633Z,88.90
2018-02-09T21:39:18.086Z,88.70
2018-02-09T21:41:57.855Z,88.80
2018-02-09T21:44:36.482Z,89.40
2018-02-09T21:47:15.245Z,89.30
2018-02-09T21:49:56.383Z,89.80
2018-02-09T21:52:34.072Z,89.20
2018-02-09T21:55:14.105Z,89.30
2018-02-09T21:57:52.405Z,89.70
2018-02-09T22:00:27.460Z,90.10
2018-02-09T22:03:07.107Z,90.10
2018-02-09T22:05:40.358Z,90.10
2018-02-09T22:08:20.885Z,90.10
2018-02-09T22:10:54.930Z,90.10
2018-02-09T22:13:35.092Z,90.30
2018-02-09T22:16:15.267Z,90.30
2018-02-09T22:18:52.519Z,90.20
2018-02-09T22:21:33.792Z,90.30
2018-02-09T22:24:12.095Z,90.40
2018-02-09T22:26:50.611Z,90.30
2018-02-09T22:29:30.899Z,90.50
2018-02-09T22:32:12.840Z,90.50
2018-02-09T22:34:51.740Z,90.50
2018-02-09T22:37:30.752Z,91.00
2018-02-09T22:40:09.908Z,91.10
2018-02-09T22:42:50.901Z,91.00
2018-02-09T22:45:30.811Z,91.20
2018-02-09T22:48:06.362Z,91.40
2018-02-09T22:50:41.157Z,91.40
2018-02-09T22:53:14.294Z,91.80
2018-02-09T22:55:47.882Z,92.00
2018-02-09T22:58:22.953Z,93.00
2018-02-09T23:01:01.891Z,92.70
2018-02-09T23:03:41.634Z,92.90
2018-02-09T23:06:15.431Z,93.20
2018-02-09T23:08:56.343Z,93.50
2018-02-09T23:11:36.577Z,93.90
2018-02-09T23:14:16.464Z,93.60
2018-02-09T23:16:57.442Z,93.80
2018-02-09T23:19:36.322Z,93.60
2018-02-09T23:22:16.151Z,93.90
2018-02-09T23:24:50.199Z,94.10
2018-02-09T23:27:30.748Z,94.30
2018-02-09T23:30:09.378Z,94.70
2018-02-09T23:32:51.721Z,94.60
2018-02-09T23:35:29.832Z,94.70
2018-02-09T23:38:09.040Z,94.70
2018-02-09T23:40:49.562Z,94.90
2018-02-09T23:43:26.565Z,94.80
2018-02-09T23:46:07.684Z,95.50
2018-02-09T23:48:46.762Z,95.50
2018-02-09T23:51:27.032Z,95.70
2018-02-09T23:54:05.743Z,95.90
2018-02-09T23:56:41.745Z,96.10
2018-02-09T23:59:19.265Z,96.30
